createdAt,value
2019-05-19T00:00:04.626Z,14.83
2019-05-19T00:01:04.605Z,14.83
2019-05-19T00:02:04.614Z,14.83
2019-05-19T00:03:04.581Z,14.83
2019-05-19T00:04:04.573Z,14.78
2019-05-19T00:05:04.569Z,14.89
2019-05-19T00:06:04.559Z,14.83
2019-05-19T00:07:04.555Z,14.77
2019-05-19T00:08:04.529Z,14.86
2019-05-19T00:09:04.516Z,14.74
2019-05-19T00:10:04.540Z,14.77
2019-05-19T00:11:04.494Z,14.79
2019-05-19T00:12:04.496Z,14.77
2019-05-19T00:13:04.471Z,14.67
2019-05-19T00:14:04.460Z,14.71
2019-05-19T00:15:04.452Z,14.77
2019-05-19T00:16:04.436Z,14.71
2019-05-19T00:17:04.441Z,14.78
2019-05-19T00:18:04.416Z,14.71
2019-05-19T00:19:04.402Z,14.71
2019-05-19T00:20:04.391Z,14.70
2019-05-19T00:21:04.385Z,14.67
2019-05-19T00:22:04.387Z,14.67
2019-05-19T00:23:04.362Z,14.61
2019-05-19T00:24:04.353Z,14.64
2019-05-19T00:25:04.366Z,14.58
2019-05-19T00:26:04.328Z,14.59
2019-05-19T00:27:04.338Z,14.56
2019-05-19T00:28:04.303Z,14.58
2019-05-19T00:29:04.294Z,14.56
2019-05-19T00:30:04.281Z,14.58
2019-05-19T00:31:04.271Z,14.53
2019-05-19T00:32:04.292Z,14.59
2019-05-19T00:33:04.251Z,14.59
2019-05-19T00:34:04.238Z,14.55
2019-05-19T00:35:04.225Z,14.58
2019-05-19T00:36:04.229Z,14.58
2019-05-19T00:37:04.220Z,14.63
2019-05-19T00:38:04.204Z,14.61
2019-05-19T00:39:04.201Z,14.56
2019-05-19T00:40:04.178Z,14.61
2019-05-19T00:41:04.166Z,14.48
2019-05-19T00:42:04.170Z,14.51
2019-05-19T00:43:04.138Z,14.48
2019-05-19T00:44:04.131Z,14.58
2019-05-19T00:45:04.121Z,14.51
2019-05-19T00:46:04.110Z,14.49
2019-05-19T00:47:04.116Z,14.49
2019-05-19T00:48:04.088Z,14.52
2019-05-19T00:49:04.072Z,14.38
2019-05-19T00:50:04.101Z,14.44
2019-05-19T00:51:04.068Z,14.40
2019-05-19T00:52:04.077Z,14.44
2019-05-19T00:53:04.165Z,14.45
2019-05-19T00:54:04.017Z,14.30
2019-05-19T00:55:04.007Z,14.30
2019-05-19T00:56:04.001Z,14.28
2019-05-19T00:57:03.987Z,14.26
2019-05-19T00:58:03.997Z,14.27
2019-05-19T00:59:03.963Z,14.27
2019-05-19T01:00:04.481Z,14.31
2019-05-19T01:01:03.940Z,14.26
2019-05-19T01:02:03.937Z,14.22
2019-05-19T01:03:03.940Z,14.26
2019-05-19T01:04:03.909Z,14.13
2019-05-19T01:05:03.895Z,14.11
2019-05-19T01:06:03.886Z,14.11
2019-05-19T01:07:03.877Z,14.11
2019-05-19T01:08:03.896Z,14.09
2019-05-19T01:09:03.851Z,14.05
2019-05-19T01:10:03.846Z,14.04
2019-05-19T01:11:03.855Z,14.04
2019-05-19T01:12:03.819Z,14.05
2019-05-19T01:13:03.827Z,14.03
2019-05-19T01:14:03.798Z,14.08
2019-05-19T01:15:03.785Z,14.03
2019-05-19T01:16:03.782Z,14.09
2019-05-19T01:17:03.764Z,14.09
2019-05-19T01:18:03.770Z,14.03
2019-05-19T01:19:03.753Z,14.12
2019-05-19T01:20:03.736Z,14.04
2019-05-19T01:21:03.722Z,14.01
2019-05-19T01:22:03.715Z,14.00
2019-05-19T01:23:03.715Z,14.01
2019-05-19T01:24:03.704Z,13.96
2019-05-19T01:25:03.675Z,13.94
2019-05-19T01:26:03.701Z,13.97
2019-05-19T01:27:03.656Z,13.83
2019-05-19T01:28:03.659Z,13.96
2019-05-19T01:29:03.630Z,13.88
2019-05-19T01:30:03.631Z,13.96
2019-05-19T01:31:03.614Z,13.90
2019-05-19T01:32:03.602Z,13.86
2019-05-19T01:33:03.604Z,13.91
2019-05-19T01:34:03.576Z,13.91
2019-05-19T01:35:03.564Z,13.82
2019-05-19T01:36:03.556Z,13.85
2019-05-19T01:37:03.552Z,13.85
2019-05-19T01:38:03.549Z,13.82
2019-05-19T01:39:03.524Z,13.80
2019-05-19T01:40:03.509Z,13.76
2019-05-19T01:41:03.501Z,13.76
2019-05-19T01:42:03.494Z,13.90
2019-05-19T01:43:03.515Z,13.73
2019-05-19T01:44:03.470Z,13.78
2019-05-19T01:45:03.463Z,13.72
2019-05-19T01:46:03.443Z,13.78
2019-05-19T01:47:03.436Z,13.71
2019-05-19T01:48:03.475Z,13.67
2019-05-19T01:49:03.411Z,13.65
2019-05-19T01:50:17.060Z,13.68
2019-05-19T01:51:04.389Z,13.63
2019-05-19T01:52:03.385Z,13.67
2019-05-19T01:53:03.390Z,13.54
2019-05-19T01:54:03.368Z,13.61
2019-05-19T01:55:03.349Z,13.71
2019-05-19T01:56:03.333Z,13.71
2019-05-19T01:57:03.325Z,13.58
2019-05-19T01:58:03.334Z,13.61
2019-05-19T01:59:03.303Z,13.55
2019-05-19T02:00:03.580Z,13.53
2019-05-19T02:01:03.339Z,13.65
2019-05-19T02:02:03.276Z,13.46
2019-05-19T02:03:03.279Z,13.55
2019-05-19T02:04:03.272Z,13.47
2019-05-19T02:05:03.233Z,13.47
2019-05-19T02:06:03.230Z,13.43
2019-05-19T02:07:03.215Z,13.53
2019-05-19T02:08:03.228Z,13.39
2019-05-19T02:09:03.195Z,13.45
2019-05-19T02:10:03.208Z,13.43
2019-05-19T02:11:03.168Z,13.42
2019-05-19T02:12:03.231Z,13.39
2019-05-19T02:13:05.126Z,13.42
2019-05-19T02:14:03.139Z,13.35
2019-05-19T02:15:03.134Z,13.30
2019-05-19T02:16:03.127Z,13.38
2019-05-19T02:17:03.106Z,13.24
2019-05-19T02:18:03.118Z,13.27
2019-05-19T02:19:03.083Z,13.13
2019-05-19T02:20:03.068Z,13.23
2019-05-19T02:21:03.057Z,13.20
2019-05-19T02:22:03.056Z,13.19
2019-05-19T02:23:03.057Z,13.20
2019-05-19T02:24:03.028Z,13.16
2019-05-19T02:25:03.014Z,13.13
2019-05-19T02:26:03.002Z,13.06
2019-05-19T02:27:02.991Z,13.04
2019-05-19T02:28:03.002Z,13.09
2019-05-19T02:29:02.970Z,13.04
2019-05-19T02:30:03.138Z,12.96
2019-05-19T02:31:02.962Z,13.08
2019-05-19T02:32:02.942Z,13.01
2019-05-19T02:33:02.946Z,13.06
2019-05-19T02:34:02.916Z,13.05
2019-05-19T02:35:02.914Z,13.05
2019-05-19T02:36:02.894Z,13.04
2019-05-19T02:37:02.882Z,13.02
2019-05-19T02:38:02.903Z,12.99
2019-05-19T02:39:02.861Z,12.99
2019-05-19T02:40:02.851Z,13.05
2019-05-19T02:41:02.869Z,12.99
2019-05-19T02:42:02.826Z,13.08
2019-05-19T02:43:02.840Z,12.99
2019-05-19T02:44:02.809Z,13.06
2019-05-19T02:45:02.800Z,12.99
2019-05-19T02:46:02.805Z,13.04
2019-05-19T02:47:02.775Z,12.87
2019-05-19T02:48:02.799Z,12.87
2019-05-19T02:49:02.752Z,12.91
2019-05-19T02:50:02.741Z,12.93
2019-05-19T02:51:02.731Z,12.90
2019-05-19T02:52:02.726Z,12.99
2019-05-19T02:53:02.736Z,12.93
2019-05-19T02:54:02.701Z,12.88
2019-05-19T02:55:02.691Z,12.87
2019-05-19T02:56:02.673Z,12.83
2019-05-19T02:57:02.661Z,12.73
2019-05-19T02:58:02.668Z,12.83
2019-05-19T02:59:02.644Z,12.83
2019-05-19T03:00:02.644Z,12.80
2019-05-19T03:01:02.634Z,12.71
2019-05-19T03:02:02.608Z,12.77
2019-05-19T03:03:02.635Z,12.72
2019-05-19T03:04:02.591Z,12.73
2019-05-19T03:05:02.590Z,12.73
2019-05-19T03:06:02.570Z,12.77
2019-05-19T03:07:02.558Z,12.77
2019-05-19T03:08:02.544Z,12.73
2019-05-19T03:09:02.549Z,12.77
2019-05-19T03:10:02.525Z,12.72
2019-05-19T03:11:02.513Z,12.68
2019-05-19T03:12:02.504Z,12.72
2019-05-19T03:13:02.492Z,12.72
2019-05-19T03:14:02.491Z,12.76
2019-05-19T03:15:02.482Z,12.77
2019-05-19T03:16:02.458Z,12.73
2019-05-19T03:17:02.444Z,12.81
2019-05-19T03:18:02.446Z,12.77
2019-05-19T03:19:02.441Z,12.77
2019-05-19T03:20:02.467Z,12.83
2019-05-19T03:21:10.811Z,12.83
2019-05-19T03:22:03.396Z,12.80
2019-05-19T03:23:02.384Z,12.80
2019-05-19T03:24:02.480Z,12.79
2019-05-19T03:25:02.362Z,12.86
2019-05-19T03:26:02.349Z,12.84
2019-05-19T03:27:02.339Z,12.84
2019-05-19T03:28:02.323Z,12.84
2019-05-19T03:29:02.357Z,12.83
2019-05-19T03:30:02.301Z,12.86
2019-05-19T03:31:02.288Z,12.84
2019-05-19T03:32:02.286Z,12.90
2019-05-19T03:33:02.322Z,12.84
2019-05-19T03:34:02.314Z,12.86
2019-05-19T03:35:02.322Z,12.84
2019-05-19T03:36:02.233Z,12.83
2019-05-19T03:37:02.223Z,12.88
2019-05-19T03:38:02.218Z,12.87
2019-05-19T03:39:02.220Z,12.83
2019-05-19T03:40:02.216Z,12.86
2019-05-19T03:41:02.182Z,12.83
2019-05-19T03:42:02.174Z,12.86
2019-05-19T03:43:02.164Z,12.83
2019-05-19T03:44:02.165Z,12.80
2019-05-19T03:45:02.154Z,12.84
2019-05-19T03:46:02.131Z,12.83
2019-05-19T03:47:02.116Z,12.87
2019-05-19T03:48:02.112Z,12.84
2019-05-19T03:49:02.107Z,12.87
2019-05-19T03:50:02.081Z,12.86
2019-05-19T03:51:02.067Z,12.84
2019-05-19T03:52:02.068Z,12.87
2019-05-19T03:53:02.048Z,12.86
2019-05-19T03:54:02.053Z,12.84
2019-05-19T03:55:02.054Z,12.80
2019-05-19T03:56:02.019Z,12.83
2019-05-19T03:57:02.005Z,12.81
2019-05-19T03:58:01.997Z,12.87
2019-05-19T03:59:01.995Z,12.77
2019-05-19T04:00:01.972Z,12.87
2019-05-19T04:01:01.965Z,12.83
2019-05-19T04:02:01.948Z,12.83
2019-05-19T04:03:01.939Z,12.79
2019-05-19T04:04:01.950Z,12.83
2019-05-19T04:05:01.914Z,12.80
2019-05-19T04:06:01.905Z,12.81
2019-05-19T04:07:01.891Z,12.72
2019-05-19T04:08:01.887Z,12.79
2019-05-19T04:09:01.892Z,12.73
2019-05-19T04:10:01.875Z,12.81
2019-05-19T04:11:01.858Z,12.76
2019-05-19T04:12:01.841Z,12.83
2019-05-19T04:13:01.841Z,12.86
2019-05-19T04:14:01.836Z,12.80
2019-05-19T04:15:01.807Z,12.81
2019-05-19T04:16:01.793Z,12.83
2019-05-19T04:17:01.783Z,12.83
2019-05-19T04:18:01.777Z,12.83
2019-05-19T04:19:01.785Z,12.80
2019-05-19T04:20:01.774Z,12.79
2019-05-19T04:21:01.737Z,12.80
2019-05-19T04:22:01.744Z,12.80
2019-05-19T04:23:01.718Z,12.83
2019-05-19T04:24:01.704Z,12.81
2019-05-19T04:25:01.719Z,12.86
2019-05-19T04:26:01.694Z,12.83
2019-05-19T04:27:01.675Z,12.81
2019-05-19T04:28:02.845Z,12.87
2019-05-19T04:29:01.654Z,12.90
2019-05-19T04:30:01.664Z,12.90
2019-05-19T04:31:01.637Z,12.93
2019-05-19T04:32:01.619Z,12.95
2019-05-19T04:33:01.607Z,12.96
2019-05-19T04:34:01.610Z,12.90
2019-05-19T04:35:02.002Z,12.88
2019-05-19T04:36:01.583Z,13.05
2019-05-19T04:37:01.567Z,13.02
2019-05-19T04:38:01.555Z,13.01
2019-05-19T04:39:01.540Z,12.98
2019-05-19T04:40:01.554Z,12.99
2019-05-19T04:41:01.517Z,13.05
2019-05-19T04:42:01.506Z,13.13
2019-05-19T04:43:01.499Z,13.05
2019-05-19T04:44:01.487Z,12.98
2019-05-19T04:45:01.491Z,13.04
2019-05-19T04:46:01.465Z,13.08
2019-05-19T04:47:01.454Z,13.08
2019-05-19T04:48:01.442Z,13.05
2019-05-19T04:49:01.429Z,13.13
2019-05-19T04:50:01.439Z,13.01
2019-05-19T04:51:01.419Z,13.09
2019-05-19T04:52:06.800Z,13.09
2019-05-19T04:53:01.402Z,13.02
2019-05-19T04:54:01.373Z,13.09
2019-05-19T04:55:01.424Z,13.04
2019-05-19T04:56:01.352Z,13.08
2019-05-19T04:57:01.349Z,13.09
2019-05-19T04:58:01.333Z,13.09
2019-05-19T04:59:01.319Z,13.09
2019-05-19T05:00:01.325Z,13.08
2019-05-19T05:01:01.300Z,13.06
2019-05-19T05:02:01.289Z,13.11
2019-05-19T05:03:01.276Z,13.11
2019-05-19T05:04:01.265Z,13.16
2019-05-19T05:05:01.605Z,13.05
2019-05-19T05:06:01.247Z,13.13
2019-05-19T05:07:01.231Z,13.19
2019-05-19T05:08:01.250Z,13.09
2019-05-19T05:09:01.215Z,13.16
2019-05-19T05:10:01.216Z,13.23
2019-05-19T05:11:01.191Z,13.23
2019-05-19T05:12:01.175Z,13.19
2019-05-19T05:13:01.164Z,13.24
2019-05-19T05:14:01.281Z,13.27
2019-05-19T05:15:01.163Z,13.24
2019-05-19T05:16:01.134Z,13.40
2019-05-19T05:17:01.120Z,13.32
2019-05-19T05:18:01.284Z,13.45
2019-05-19T05:19:01.107Z,13.32
2019-05-19T05:20:01.107Z,13.36
2019-05-19T05:21:01.081Z,13.43
2019-05-19T05:22:01.065Z,13.42
2019-05-19T05:23:01.056Z,13.47
2019-05-19T05:24:01.047Z,13.45
2019-05-19T05:25:01.048Z,13.45
2019-05-19T05:26:01.025Z,13.43
2019-05-19T05:27:01.015Z,13.51
2019-05-19T05:28:01.002Z,13.54
2019-05-19T05:29:00.987Z,13.45
2019-05-19T05:30:01.055Z,13.47
2019-05-19T05:31:00.975Z,13.39
2019-05-19T05:32:00.956Z,13.45
2019-05-19T05:33:00.951Z,13.53
2019-05-19T05:34:00.934Z,13.54
2019-05-19T05:35:00.940Z,13.63
2019-05-19T05:36:00.935Z,13.55
2019-05-19T05:37:00.909Z,13.58
2019-05-19T05:38:00.896Z,13.55
2019-05-19T05:39:00.883Z,13.58
2019-05-19T05:40:00.883Z,13.61
2019-05-19T05:41:00.857Z,13.60
2019-05-19T05:42:00.928Z,13.64
2019-05-19T05:43:00.833Z,13.58
2019-05-19T05:44:00.828Z,13.72
2019-05-19T05:45:00.831Z,13.58
2019-05-19T05:46:00.807Z,13.61
2019-05-19T05:47:00.793Z,13.65
2019-05-19T05:48:00.779Z,13.68
2019-05-19T05:49:00.767Z,13.67
2019-05-19T05:50:00.776Z,13.73
2019-05-19T05:51:00.749Z,13.63
2019-05-19T05:52:00.735Z,13.67
2019-05-19T05:53:00.724Z,13.63
2019-05-19T05:54:00.713Z,13.57
2019-05-19T05:55:00.738Z,13.57
2019-05-19T05:56:00.693Z,13.67
2019-05-19T05:57:00.685Z,13.63
2019-05-19T05:58:00.675Z,13.58
2019-05-19T05:59:00.661Z,13.60
2019-05-19T06:00:00.667Z,13.71
2019-05-19T06:01:00.635Z,13.68
2019-05-19T06:02:00.634Z,13.72
2019-05-19T06:03:00.619Z,13.72
2019-05-19T06:04:00.607Z,13.72
2019-05-19T06:05:00.610Z,13.71
2019-05-19T06:06:00.580Z,13.73
2019-05-19T06:07:00.577Z,13.78
2019-05-19T06:08:00.558Z,13.80
2019-05-19T06:09:00.547Z,13.82
2019-05-19T06:10:00.553Z,13.85
2019-05-19T06:11:00.544Z,13.86
2019-05-19T06:12:00.516Z,13.91
2019-05-19T06:13:00.504Z,13.86
2019-05-19T06:14:00.497Z,13.94
2019-05-19T06:15:00.498Z,13.94
2019-05-19T06:16:00.470Z,14.03
2019-05-19T06:17:00.460Z,14.05
2019-05-19T06:18:00.448Z,14.03
2019-05-19T06:19:00.454Z,13.97
2019-05-19T06:20:00.450Z,14.09
2019-05-19T06:21:00.422Z,14.08
2019-05-19T06:22:00.410Z,14.08
2019-05-19T06:23:00.395Z,14.16
2019-05-19T06:24:00.385Z,14.19
2019-05-19T06:25:00.389Z,14.27
2019-05-19T06:26:00.361Z,14.26
2019-05-19T06:27:00.354Z,14.33
2019-05-19T06:28:00.339Z,14.31
2019-05-19T06:29:00.327Z,14.38
2019-05-19T06:30:00.339Z,14.38
2019-05-19T06:31:00.310Z,14.40
2019-05-19T06:32:00.298Z,14.41
2019-05-19T06:33:00.290Z,14.53
2019-05-19T06:34:00.282Z,14.41
2019-05-19T06:35:00.280Z,14.58
2019-05-19T06:36:00.249Z,14.58
2019-05-19T06:37:00.252Z,14.61
2019-05-19T06:38:00.228Z,14.52
2019-05-19T06:39:00.291Z,14.63
2019-05-19T06:40:00.232Z,14.61
2019-05-19T06:41:00.193Z,14.67
2019-05-19T06:42:00.246Z,14.66
2019-05-19T06:43:00.189Z,14.74
2019-05-19T06:44:03.244Z,14.71
2019-05-19T06:45:00.177Z,14.83
2019-05-19T06:46:00.141Z,14.83
2019-05-19T06:47:00.128Z,14.90
2019-05-19T06:48:00.117Z,14.89
2019-05-19T06:49:00.106Z,15.03
2019-05-19T06:50:00.164Z,15.01
2019-05-19T06:51:00.085Z,15.08
2019-05-19T06:52:00.072Z,15.12
2019-05-19T06:53:13.349Z,15.08
2019-05-19T06:54:01.051Z,15.15
2019-05-19T06:55:00.125Z,15.17
2019-05-19T06:56:00.032Z,15.30
2019-05-19T06:57:00.041Z,15.35
2019-05-19T06:58:00.009Z,15.36
2019-05-19T06:59:00.045Z,15.41
2019-05-19T07:00:00.085Z,15.45
2019-05-19T07:00:59.979Z,15.59
2019-05-19T07:01:59.970Z,15.52
2019-05-19T07:02:59.954Z,15.59
2019-05-19T07:03:59.946Z,15.72
2019-05-19T07:04:59.957Z,15.66
2019-05-19T07:05:59.918Z,15.72
2019-05-19T07:06:59.934Z,15.78
2019-05-19T07:07:59.904Z,15.81
2019-05-19T07:08:59.888Z,15.80
2019-05-19T07:09:59.876Z,15.87
2019-05-19T07:10:59.882Z,15.96
2019-05-19T07:11:59.869Z,15.95
2019-05-19T07:12:59.845Z,15.99
2019-05-19T07:14:02.917Z,16.06
2019-05-19T07:14:59.819Z,16.05
2019-05-19T07:15:59.828Z,16.09
2019-05-19T07:16:59.797Z,16.08
2019-05-19T07:17:59.801Z,16.10
2019-05-19T07:18:59.774Z,16.14
2019-05-19T07:19:59.763Z,16.17
2019-05-19T07:20:59.770Z,16.22
2019-05-19T07:21:59.743Z,16.33
2019-05-19T07:22:59.729Z,16.42
2019-05-19T07:23:59.728Z,16.36
2019-05-19T07:24:59.710Z,16.42
2019-05-19T07:25:59.726Z,16.46
2019-05-19T07:26:59.685Z,16.61
2019-05-19T07:27:59.674Z,16.54
2019-05-19T07:28:59.664Z,16.61
2019-05-19T07:29:59.652Z,16.70
2019-05-19T07:30:59.657Z,16.72
2019-05-19T07:32:00.477Z,16.79
2019-05-19T07:32:59.619Z,16.79
2019-05-19T07:33:59.608Z,16.83
2019-05-19T07:34:59.605Z,16.88
2019-05-19T07:35:59.616Z,16.90
2019-05-19T07:36:59.580Z,16.97
2019-05-19T07:37:59.606Z,16.88
2019-05-19T07:38:59.559Z,16.94
2019-05-19T07:39:59.548Z,16.94
2019-05-19T07:40:59.627Z,16.98
2019-05-19T07:41:59.530Z,17.04
2019-05-19T07:42:59.512Z,17.06
2019-05-19T07:43:59.508Z,17.20
2019-05-19T07:44:59.487Z,17.17
2019-05-19T07:45:59.500Z,17.12
2019-05-19T07:46:59.465Z,17.22
2019-05-19T07:47:59.459Z,17.16
2019-05-19T07:48:59.448Z,17.32
2019-05-19T07:49:59.437Z,17.25
2019-05-19T07:50:59.439Z,17.35
2019-05-19T07:51:59.418Z,17.39
2019-05-19T07:52:59.404Z,17.43
2019-05-19T07:53:59.389Z,17.53
2019-05-19T07:54:59.393Z,17.53
2019-05-19T07:55:59.385Z,17.53
2019-05-19T07:56:59.356Z,17.56
2019-05-19T07:57:59.344Z,17.72
2019-05-19T07:58:59.334Z,17.66
2019-05-19T07:59:59.323Z,17.62
2019-05-19T08:00:59.331Z,17.72
2019-05-19T08:01:59.399Z,17.75
2019-05-19T08:02:59.293Z,17.72
2019-05-19T08:03:59.285Z,17.79
2019-05-19T08:04:59.281Z,17.83
2019-05-19T08:05:59.283Z,17.84
2019-05-19T08:06:59.247Z,17.94
2019-05-19T08:07:59.241Z,17.94
2019-05-19T08:08:59.235Z,17.91
2019-05-19T08:09:59.222Z,17.91
2019-05-19T08:10:59.241Z,18.01
2019-05-19T08:11:59.198Z,18.02
2019-05-19T08:12:59.185Z,18.02
2019-05-19T08:13:59.173Z,18.08
2019-05-19T08:14:59.166Z,18.20
2019-05-19T08:15:59.168Z,18.15
2019-05-19T08:16:59.148Z,18.28
2019-05-19T08:17:59.136Z,18.23
2019-05-19T08:18:59.123Z,18.28
2019-05-19T08:19:59.112Z,18.42
2019-05-19T08:20:59.165Z,18.45
2019-05-19T08:21:59.089Z,18.42
2019-05-19T08:22:59.106Z,18.36
2019-05-19T08:24:00.675Z,18.45
2019-05-19T08:24:59.064Z,18.43
2019-05-19T08:25:59.065Z,18.61
2019-05-19T08:26:59.040Z,18.60
2019-05-19T08:28:07.429Z,18.64
2019-05-19T08:29:00.106Z,18.52
2019-05-19T08:29:59.005Z,18.71
2019-05-19T08:30:59.010Z,18.70
2019-05-19T08:31:58.984Z,18.74
2019-05-19T08:32:58.971Z,18.78
2019-05-19T08:33:59.066Z,18.85
2019-05-19T08:34:58.952Z,18.94
2019-05-19T08:35:58.960Z,18.97
2019-05-19T08:36:58.931Z,19.00
2019-05-19T08:37:58.922Z,18.98
2019-05-19T08:38:58.907Z,19.08
2019-05-19T08:39:58.998Z,19.13
2019-05-19T08:40:58.914Z,19.13
2019-05-19T08:41:58.872Z,19.17
2019-05-19T08:42:58.900Z,19.19
2019-05-19T08:43:58.863Z,19.23
2019-05-19T08:44:58.844Z,19.24
2019-05-19T08:45:58.852Z,19.31
2019-05-19T08:46:58.821Z,19.26
2019-05-19T08:47:58.809Z,19.31
2019-05-19T08:48:58.798Z,19.30
2019-05-19T08:49:58.789Z,19.41
2019-05-19T08:50:58.791Z,19.32
2019-05-19T08:51:58.772Z,19.38
2019-05-19T08:52:58.753Z,19.41
2019-05-19T08:53:58.752Z,19.42
2019-05-19T08:54:58.730Z,19.44
2019-05-19T08:55:58.738Z,19.39
2019-05-19T08:56:58.728Z,19.41
2019-05-19T08:57:58.703Z,19.54
2019-05-19T08:58:58.694Z,19.57
2019-05-19T08:59:58.679Z,19.53
2019-05-19T09:00:58.686Z,19.57
2019-05-19T09:01:58.657Z,19.62
2019-05-19T09:02:58.646Z,19.59
2019-05-19T09:03:59.017Z,19.56
2019-05-19T09:04:58.650Z,19.56
2019-05-19T09:05:58.635Z,19.71
2019-05-19T09:06:58.598Z,19.74
2019-05-19T09:07:58.594Z,19.75
2019-05-19T09:08:58.579Z,19.72
2019-05-19T09:09:58.568Z,19.75
2019-05-19T09:10:58.583Z,19.79
2019-05-19T09:11:58.543Z,19.86
2019-05-19T09:12:58.536Z,19.89
2019-05-19T09:13:58.523Z,19.92
2019-05-19T09:14:58.510Z,19.84
2019-05-19T09:15:58.516Z,19.86
2019-05-19T09:16:58.488Z,19.93
2019-05-19T09:17:58.482Z,19.82
2019-05-19T09:18:58.476Z,19.82
2019-05-19T09:19:58.454Z,19.90
2019-05-19T09:20:58.469Z,19.89
2019-05-19T09:21:58.445Z,20.02
2019-05-19T09:22:58.424Z,20.14
2019-05-19T09:23:58.413Z,20.11
2019-05-19T09:24:58.399Z,20.15
2019-05-19T09:25:58.410Z,20.22
2019-05-19T09:26:58.377Z,20.30
2019-05-19T09:27:58.417Z,20.34
2019-05-19T09:28:58.364Z,20.37
2019-05-19T09:29:58.347Z,20.46
2019-05-19T09:30:58.348Z,20.48
2019-05-19T09:31:58.323Z,20.53
2019-05-19T09:32:58.317Z,20.49
2019-05-19T09:33:58.358Z,20.52
2019-05-19T09:34:58.291Z,20.55
2019-05-19T09:35:58.291Z,20.50
2019-05-19T09:36:58.264Z,20.68
2019-05-19T09:37:58.285Z,20.68
2019-05-19T09:38:58.248Z,20.71
2019-05-19T09:39:58.231Z,20.68
2019-05-19T09:40:58.253Z,20.74
2019-05-19T09:41:58.209Z,20.68
2019-05-19T09:42:58.199Z,20.74
2019-05-19T09:43:58.187Z,20.85
2019-05-19T09:44:58.521Z,20.83
2019-05-19T09:45:58.169Z,20.95
2019-05-19T09:46:58.173Z,20.92
2019-05-19T09:47:58.142Z,21.03
2019-05-19T09:48:58.132Z,21.04
2019-05-19T09:49:58.125Z,21.07
2019-05-19T09:50:58.141Z,21.08
2019-05-19T09:51:58.125Z,21.25
2019-05-19T09:52:58.087Z,21.35
2019-05-19T09:53:58.077Z,21.34
2019-05-19T09:54:58.097Z,21.44
2019-05-19T09:55:58.054Z,21.56
2019-05-19T09:56:58.064Z,21.58
2019-05-19T09:57:58.035Z,21.66
2019-05-19T09:58:58.020Z,21.80
2019-05-19T09:59:58.011Z,21.90
2019-05-19T10:00:58.124Z,21.94
2019-05-19T10:01:58.117Z,21.88
2019-05-19T10:02:57.975Z,21.84
2019-05-19T10:03:57.965Z,21.93
2019-05-19T10:04:57.967Z,22.00
2019-05-19T10:05:57.958Z,22.11
2019-05-19T10:06:57.957Z,22.12
2019-05-19T10:07:57.930Z,22.25
2019-05-19T10:08:57.908Z,22.34
2019-05-19T10:09:57.920Z,22.38
2019-05-19T10:10:57.886Z,22.43
2019-05-19T10:11:57.893Z,22.52
2019-05-19T10:12:57.864Z,22.43
2019-05-19T10:13:57.859Z,22.52
2019-05-19T10:14:57.973Z,22.64
2019-05-19T10:15:57.839Z,22.53
2019-05-19T10:16:57.837Z,22.67
2019-05-19T10:17:57.817Z,22.67
2019-05-19T10:18:57.799Z,22.78
2019-05-19T10:19:57.797Z,22.88
2019-05-19T10:20:57.912Z,22.89
2019-05-19T10:21:57.781Z,23.01
2019-05-19T10:22:57.753Z,23.01
2019-05-19T10:23:57.748Z,23.13
2019-05-19T10:25:18.313Z,23.06
2019-05-19T10:25:57.726Z,23.10
2019-05-19T10:26:57.806Z,23.21
2019-05-19T10:27:57.913Z,23.22
2019-05-19T10:28:57.689Z,23.22
2019-05-19T10:29:57.683Z,23.23
2019-05-19T10:30:57.665Z,23.39
2019-05-19T10:31:57.672Z,23.39
2019-05-19T10:32:58.794Z,23.45
2019-05-19T10:33:58.574Z,23.37
2019-05-19T10:34:57.624Z,23.44
2019-05-19T10:35:57.612Z,23.46
2019-05-19T10:36:57.632Z,23.45
2019-05-19T10:37:57.610Z,23.48
2019-05-19T10:38:57.579Z,23.60
2019-05-19T10:39:57.569Z,23.63
2019-05-19T10:40:57.558Z,23.63
2019-05-19T10:41:57.564Z,23.73
2019-05-19T10:42:57.534Z,23.85
2019-05-19T10:44:00.576Z,24.00
2019-05-19T10:44:57.515Z,23.92
2019-05-19T10:45:57.506Z,24.07
2019-05-19T10:46:57.518Z,24.08
2019-05-19T10:47:57.480Z,24.08
2019-05-19T10:48:57.470Z,24.23
2019-05-19T10:49:57.463Z,24.15
2019-05-19T10:50:57.455Z,24.23
2019-05-19T10:51:57.459Z,24.26
2019-05-19T10:52:57.428Z,24.13
2019-05-19T10:53:57.417Z,24.15
2019-05-19T10:54:57.407Z,24.19
2019-05-19T10:55:57.396Z,24.21
2019-05-19T10:56:57.401Z,24.31
2019-05-19T10:57:57.373Z,24.31
2019-05-19T10:58:57.372Z,24.21
2019-05-19T10:59:57.353Z,24.21
2019-05-19T11:00:57.386Z,24.22
2019-05-19T11:01:57.355Z,24.22
2019-05-19T11:02:57.322Z,24.16
2019-05-19T11:03:57.440Z,24.22
2019-05-19T11:04:57.359Z,24.18
2019-05-19T11:05:57.289Z,24.21
2019-05-19T11:06:57.294Z,24.18
2019-05-19T11:07:57.305Z,24.22
2019-05-19T11:08:57.264Z,24.29
2019-05-19T11:09:57.264Z,24.28
2019-05-19T11:10:57.233Z,24.34
2019-05-19T11:11:57.251Z,24.21
2019-05-19T11:12:57.222Z,24.18
2019-05-19T11:13:57.202Z,24.15
2019-05-19T11:14:57.198Z,24.22
2019-05-19T11:15:57.217Z,24.16
2019-05-19T11:16:57.315Z,24.16
2019-05-19T11:17:57.161Z,24.08
2019-05-19T11:18:57.185Z,24.16
2019-05-19T11:19:57.140Z,24.18
2019-05-19T11:20:57.226Z,24.22
2019-05-19T11:21:57.143Z,24.22
2019-05-19T11:22:57.116Z,24.19
2019-05-19T11:23:57.103Z,24.21
2019-05-19T11:24:57.118Z,24.23
2019-05-19T11:25:57.080Z,24.18
2019-05-19T11:26:57.082Z,24.18
2019-05-19T11:27:57.057Z,24.15
2019-05-19T11:28:57.045Z,24.19
2019-05-19T11:29:57.034Z,24.29
2019-05-19T11:30:57.032Z,24.21
2019-05-19T11:31:57.033Z,24.11
2019-05-19T11:32:57.005Z,24.18
2019-05-19T11:33:56.992Z,24.21
2019-05-19T11:34:56.992Z,24.23
2019-05-19T11:35:56.970Z,24.16
2019-05-19T11:36:56.975Z,24.19
2019-05-19T11:37:56.947Z,24.23
2019-05-19T11:38:56.942Z,24.15
2019-05-19T11:39:56.927Z,24.21
2019-05-19T11:40:56.919Z,24.26
2019-05-19T11:41:56.934Z,24.13
2019-05-19T11:42:56.899Z,24.28
2019-05-19T11:43:56.886Z,24.22
2019-05-19T11:44:56.880Z,24.19
2019-05-19T11:45:56.867Z,24.18
2019-05-19T11:46:56.870Z,24.22
2019-05-19T11:47:56.842Z,24.21
2019-05-19T11:48:56.842Z,24.23
2019-05-19T11:49:56.820Z,24.16
2019-05-19T11:50:56.814Z,24.21
2019-05-19T11:51:56.820Z,24.22
2019-05-19T11:52:56.797Z,24.18
2019-05-19T11:53:56.777Z,24.22
2019-05-19T11:54:56.766Z,24.16
2019-05-19T11:56:06.088Z,24.11
2019-05-19T11:56:56.809Z,24.21
2019-05-19T11:57:56.785Z,24.15
2019-05-19T11:58:56.729Z,24.11
2019-05-19T11:59:56.714Z,24.08
2019-05-19T12:00:56.864Z,24.07
2019-05-19T12:01:56.723Z,24.08
2019-05-19T12:02:56.690Z,24.06
2019-05-19T12:03:56.673Z,24.06
2019-05-19T12:04:56.680Z,24.06
2019-05-19T12:05:56.703Z,24.08
2019-05-19T12:06:56.785Z,24.01
2019-05-19T12:07:56.650Z,24.00
2019-05-19T12:08:56.624Z,23.97
2019-05-19T12:09:56.607Z,23.96
2019-05-19T12:10:56.602Z,23.94
2019-05-19T12:11:58.042Z,23.96
2019-05-19T12:12:56.593Z,23.88
2019-05-19T12:13:56.568Z,23.86
2019-05-19T12:14:56.563Z,23.89
2019-05-19T12:15:56.543Z,23.88
2019-05-19T12:16:56.555Z,23.78
2019-05-19T12:17:56.540Z,23.81
2019-05-19T12:18:57.582Z,23.78
2019-05-19T12:19:56.505Z,23.78
2019-05-19T12:20:57.007Z,23.82
2019-05-19T12:21:56.481Z,23.70
2019-05-19T12:22:56.585Z,23.81
2019-05-19T12:23:56.466Z,23.76
2019-05-19T12:24:56.448Z,23.69
2019-05-19T12:25:56.438Z,23.73
2019-05-19T12:26:56.430Z,23.64
2019-05-19T12:27:56.435Z,23.63
2019-05-19T12:28:56.405Z,23.63
2019-05-19T12:29:56.399Z,23.70
2019-05-19T12:30:56.384Z,23.70
2019-05-19T12:31:56.376Z,23.76
2019-05-19T12:32:59.191Z,23.78
2019-05-19T12:33:56.357Z,23.71
2019-05-19T12:34:56.343Z,23.73
2019-05-19T12:35:56.347Z,23.71
2019-05-19T12:36:56.319Z,23.74
2019-05-19T12:37:56.332Z,23.78
2019-05-19T12:38:56.307Z,23.82
2019-05-19T12:39:56.293Z,23.82
2019-05-19T12:40:56.278Z,23.81
2019-05-19T12:41:56.266Z,23.85
2019-05-19T12:42:56.270Z,23.81
2019-05-19T12:43:56.250Z,23.94
2019-05-19T12:44:56.233Z,23.97
2019-05-19T12:45:56.250Z,24.08
2019-05-19T12:46:56.216Z,24.10
2019-05-19T12:47:56.227Z,24.19
2019-05-19T12:48:56.235Z,24.21
2019-05-19T12:49:56.187Z,24.13
2019-05-19T12:50:56.169Z,24.21
2019-05-19T12:51:56.160Z,24.22